Blue Horizons Flying Club, Inc.

Radar AviationWeather DUATS TFRs Wunderground Accuweather Weather.com

alt : Radar

TAFs

KCLE 030254Z 0303/0406 16005KT P6SM OVC200
   FM031500 14010KT 6SM -SN OVC040
   FM031700 15010KT 3SM -FZRASNPL BR SCT015 OVC040
   FM032000 18015KT 2SM -RA BR OVC009 WS020/23045KT
   FM040100 24015KT 5SM BR OVC005
KDTW 030250Z 0303/0406 VRB04KT P6SM BKN150
   FM031200 14008KT P6SM BKN050
   FM031400 14012KT 4SM -SN BKN035 OVC070
   FM031500 14012KT 1SM -SN BR OVC015
   FM031700 15012KT 1SM -FZRAPL BR BKN008 OVC015
   FM032000 17013KT 3SM -RA BR OVC008
   FM032300 21015KT 2SM -DZ BR OVC007
KJXN 022340Z 0300/0324 25008KT P6SM SCT150
   FM030600 15007KT P6SM OVC100
   FM031500 15015G23KT 1SM -SN BR OVC012
   FM031700 16017G25KT 1SM -FZRASN BR OVC009
KFWA 022338Z 0300/0324 VRB03KT P6SM SCT120 BKN250
   FM031000 13012KT 3SM -SN OVC080
   FM031300 15013KT 2SM -SNPL BR OVC015
   FM031600 17015KT 1SM -FZRA BR OVC006 WS020/20035KT
   FM032000 21016G23KT 1SM -RA BR OVC015 WS020/23050KT
KFDY 022334Z 0300/0324 16005KT P6SM BKN200
   FM031400 14010KT 6SM -SN BKN050 OVC090
   FM031600 12010KT 4SM -FZRAPL BR BKN015 OVC050
   FM031900 20015KT 2SM -RA BR BKN005 OVC015 WS020/22045KT
KTOL 022334Z 0300/0324 16003KT P6SM BKN200
   FM031400 15010KT 6SM -SN BKN050 OVC090
   FM031600 15010KT 4SM -FZRAPL BR BKN015 OVC050
   FM031900 20015KT 2SM -RA BR BKN005 OVC015 WS020/22045KT

METARs

KJXN 030256Z 19004KT 10SM CLR M04/M11 A3033 RMK AO2 SLP286 T10441106 58017
KDUH 030254Z AUTO 21004KT 10SM CLR M04/M09 A3040 RMK AO2
KFWA 030254Z 16004KT 10SM BKN120 OVC210 M06/M10 A3038 RMK AO2 SLP302 T10611100 58013
KDTW 030253Z 17003KT 10SM SCT120 BKN220 M05/M11 A3038 RMK AO2 SLP298 T10501106 58013
KFDY 030253Z AUTO 15004KT 9SM CLR M10/M13 A3039 RMK AO2 SLP302 T11001133 58013
KTDZ 030253Z AUTO 22007KT 7SM CLR M07/M12 A3041 RMK AO2 SLP309 T10721117 56009 TSNO
KTOL 030252Z 19005KT 7SM CLR M07/M11 A3039 RMK AO2 SLP302 T10671106 58012
KCLE 030251Z 16005KT 10SM BKN250 M07/M13 A3043 RMK AO2 SLP317 T10671128 58013

alt : Satellite

alt : TFRs